createdAt,value
2019-05-23T00:00:14.992Z,85.3
2019-05-23T00:01:29.637Z,85.9
2019-05-23T00:02:43.312Z,86.8
2019-05-23T00:03:57.598Z,87.6
2019-05-23T00:05:11.708Z,86.3
2019-05-23T00:06:25.932Z,85.7
2019-05-23T00:07:40.202Z,88.4
2019-05-23T00:08:54.345Z,92.5
2019-05-23T00:10:08.543Z,93.1
2019-05-23T00:11:22.714Z,92.1
2019-05-23T00:12:36.908Z,91.7
2019-05-23T00:13:51.213Z,92.3
2019-05-23T00:15:05.329Z,93.3
2019-05-23T00:16:19.623Z,94.5
2019-05-23T00:17:35.630Z,94.5
2019-05-23T00:18:47.928Z,94.5
2019-05-23T00:20:02.127Z,94.4
2019-05-23T00:21:16.423Z,94.4
2019-05-23T00:22:30.520Z,94
2019-05-23T00:23:44.727Z,93.2
2019-05-23T00:24:58.937Z,92.9
2019-05-23T00:26:13.187Z,92.3
2019-05-23T00:27:27.321Z,92.9
2019-05-23T00:28:41.515Z,93.1
2019-05-23T00:29:55.734Z,93.6
2019-05-23T00:31:10.015Z,91.7
2019-05-23T00:32:24.218Z,90.8
2019-05-23T00:33:38.311Z,90.8
2019-05-23T00:34:52.514Z,91.4
2019-05-23T00:36:06.711Z,92
2019-05-23T00:37:20.975Z,90.9
2019-05-23T00:38:35.627Z,89.4
2019-05-23T00:39:49.351Z,88.2
2019-05-23T00:41:03.510Z,88.6
2019-05-23T00:42:22.431Z,89
2019-05-23T00:43:31.915Z,89.8
2019-05-23T00:44:46.254Z,90.7
2019-05-23T00:46:00.332Z,90.4
2019-05-23T00:47:14.528Z,91.4
2019-05-23T00:48:28.873Z,91.4
2019-05-23T00:49:42.928Z,92
2019-05-23T00:50:57.136Z,92.8
2019-05-23T00:52:11.352Z,93.4
2019-05-23T00:53:25.634Z,94.4
2019-05-23T00:54:39.736Z,93.7
2019-05-23T00:55:53.935Z,93.6
2019-05-23T00:57:08.130Z,92.9
2019-05-23T00:58:22.346Z,93.2
2019-05-23T00:59:36.536Z,93.3
2019-05-23T01:00:50.781Z,93.1
2019-05-23T01:02:04.933Z,93.7
2019-05-23T01:03:19.254Z,94.4
2019-05-23T01:04:33.376Z,94.5
2019-05-23T01:05:50.451Z,94.4
2019-05-23T01:07:05.525Z,94.4
2019-05-23T01:08:15.970Z,94.7
2019-05-23T01:09:30.273Z,94.7
2019-05-23T01:11:58.656Z,95.2
2019-05-23T01:13:12.870Z,94.2
2019-05-23T01:14:27.034Z,94.4
2019-05-23T01:15:41.196Z,95.1
2019-05-23T01:16:55.477Z,95.5
2019-05-23T01:18:09.685Z,96.8
2019-05-23T01:19:23.920Z,97.8
2019-05-23T01:20:38.098Z,98.1
2019-05-23T01:21:52.364Z,98.2
2019-05-23T01:23:06.427Z,99.1
2019-05-23T01:24:20.624Z,98.8
2019-05-23T01:25:34.944Z,98.5
2019-05-23T01:26:49.037Z,99.7
2019-05-23T01:28:03.415Z,99
2019-05-23T01:29:17.470Z,99.6
2019-05-23T01:30:31.659Z,98.5
2019-05-23T01:31:46.006Z,99
2019-05-23T01:33:00.187Z,98.7
2019-05-23T01:34:14.287Z,98.8
2019-05-23T01:35:28.494Z,98.5
2019-05-23T01:36:42.694Z,98.9
2019-05-23T01:37:56.893Z,99.5
2019-05-23T01:39:11.100Z,99.5
2019-05-23T01:40:25.402Z,99.6
2019-05-23T01:41:39.562Z,99.7
2019-05-23T01:42:53.848Z,99.3
2019-05-23T01:44:07.938Z,99
2019-05-23T01:45:22.325Z,99.3
2019-05-23T01:46:36.399Z,98.8
2019-05-23T01:47:50.572Z,99.3
2019-05-23T01:49:04.781Z,99.2
2019-05-23T01:50:19.020Z,98.8
2019-05-23T01:51:33.206Z,99.5
2019-05-23T01:52:47.445Z,99.6
2019-05-23T01:54:01.609Z,99.9
2019-05-23T01:55:15.969Z,99.6
2019-05-23T01:56:30.042Z,99.6
2019-05-23T01:57:44.234Z,99.2
2019-05-23T01:58:58.609Z,99.6
2019-05-23T02:00:15.776Z,99.8
2019-05-23T02:01:26.979Z,99.7
2019-05-23T02:02:41.072Z,99.4
2019-05-23T02:03:55.285Z,99.7
2019-05-23T02:05:13.062Z,99.4
2019-05-23T02:06:26.262Z,99.5
2019-05-23T02:07:37.908Z,98.7
2019-05-23T02:08:52.158Z,99.3
2019-05-23T02:10:06.461Z,98.6
2019-05-23T02:11:20.544Z,98.7
2019-05-23T02:12:34.806Z,98.9
2019-05-23T02:13:48.948Z,98.3
2019-05-23T02:15:03.162Z,98.2
2019-05-23T02:16:17.375Z,98.6
2019-05-23T02:17:31.597Z,98.7
2019-05-23T02:18:45.804Z,98.9
2019-05-23T02:20:00.301Z,98.5
2019-05-23T02:21:14.229Z,98.7
2019-05-23T02:22:28.522Z,98.8
2019-05-23T02:23:42.724Z,98.8
2019-05-23T02:24:57.077Z,98.8
2019-05-23T02:26:11.177Z,98.9
2019-05-23T02:27:25.285Z,98.6
2019-05-23T02:28:39.486Z,98.7
2019-05-23T02:29:53.695Z,98.3
2019-05-23T02:31:07.931Z,98.6
2019-05-23T02:32:22.296Z,98.6
2019-05-23T02:33:36.345Z,98.4
2019-05-23T02:34:50.561Z,98.4
2019-05-23T02:36:04.882Z,98.6
2019-05-23T02:37:18.982Z,98.6
2019-05-23T02:38:33.204Z,98.7
2019-05-23T02:39:47.514Z,98.4
2019-05-23T02:41:01.724Z,98.8
2019-05-23T02:42:15.852Z,98.7
2019-05-23T02:43:30.081Z,98.9
2019-05-23T02:44:44.349Z,98.8
2019-05-23T02:45:58.534Z,99.5
2019-05-23T02:47:12.841Z,99.7
2019-05-23T02:48:26.960Z,99.6
2019-05-23T02:49:41.160Z,99.5
2019-05-23T02:50:55.382Z,99.2
2019-05-23T02:52:09.599Z,99.5
2019-05-23T02:53:23.816Z,99.7
2019-05-23T02:54:38.089Z,100
2019-05-23T02:55:52.283Z,100
2019-05-23T02:57:06.472Z,100
2019-05-23T02:58:20.832Z,100
2019-05-23T02:59:34.928Z,100
2019-05-23T03:00:49.141Z,100
2019-05-23T03:02:03.327Z,100
2019-05-23T03:03:17.527Z,99.8
2019-05-23T03:04:31.781Z,100
2019-05-23T03:05:45.969Z,99.7
2019-05-23T03:07:00.179Z,100
2019-05-23T03:08:14.374Z,100
2019-05-23T03:09:28.669Z,100
2019-05-23T03:10:42.807Z,100
2019-05-23T03:11:57.009Z,100
2019-05-23T03:13:11.216Z,100
2019-05-23T03:14:25.429Z,100
2019-05-23T03:15:39.640Z,100
2019-05-23T03:16:54.067Z,100
2019-05-23T03:18:08.151Z,100
2019-05-23T03:19:22.393Z,100
2019-05-23T03:20:41.724Z,100
2019-05-23T03:21:50.748Z,100
2019-05-23T03:23:04.903Z,100
2019-05-23T03:24:19.100Z,100
2019-05-23T03:25:33.323Z,100
2019-05-23T03:26:47.521Z,100
2019-05-23T03:28:01.738Z,100
2019-05-23T03:29:16.000Z,100
2019-05-23T03:30:30.234Z,100
2019-05-23T03:31:44.360Z,100
2019-05-23T03:32:58.623Z,100
2019-05-23T03:34:12.785Z,100
2019-05-23T03:35:26.966Z,100
2019-05-23T03:36:41.185Z,100
2019-05-23T03:37:55.400Z,100
2019-05-23T03:39:09.599Z,100
2019-05-23T03:40:23.848Z,100
2019-05-23T03:41:38.030Z,100
2019-05-23T03:42:52.268Z,100
2019-05-23T03:44:06.430Z,100
2019-05-23T03:45:20.939Z,100
2019-05-23T03:46:34.867Z,100
2019-05-23T03:47:49.069Z,100
2019-05-23T03:49:03.292Z,100
2019-05-23T03:50:17.488Z,100
2019-05-23T03:51:31.720Z,100
2019-05-23T03:52:45.912Z,100
2019-05-23T03:54:00.157Z,100
2019-05-23T03:55:14.452Z,100
2019-05-23T03:56:28.720Z,100
2019-05-23T03:57:42.779Z,100
2019-05-23T03:58:57.081Z,100
2019-05-23T04:00:11.184Z,100
2019-05-23T04:01:25.392Z,100
2019-05-23T04:02:39.627Z,100
2019-05-23T04:03:53.883Z,100
2019-05-23T04:05:08.013Z,100
2019-05-23T04:06:22.250Z,100
2019-05-23T04:07:36.434Z,100
2019-05-23T04:08:50.669Z,100
2019-05-23T04:10:04.847Z,100
2019-05-23T04:11:19.171Z,100
2019-05-23T04:12:33.261Z,100
2019-05-23T04:13:47.457Z,100
2019-05-23T04:15:06.278Z,100
2019-05-23T04:16:15.836Z,100
2019-05-23T04:17:30.035Z,100
2019-05-23T04:18:44.340Z,100
2019-05-23T04:19:58.437Z,99.6
2019-05-23T04:21:12.624Z,99.8
2019-05-23T04:22:26.881Z,99.5
2019-05-23T04:23:41.059Z,99.3
2019-05-23T04:24:58.770Z,99.4
2019-05-23T04:26:09.572Z,99.2
2019-05-23T04:27:23.586Z,99.3
2019-05-23T04:28:37.781Z,98.8
2019-05-23T04:29:52.055Z,98.5
2019-05-23T04:31:06.321Z,98.4
2019-05-23T04:32:20.370Z,97.9
2019-05-23T04:33:34.665Z,98.3
2019-05-23T04:34:48.770Z,98.4
2019-05-23T04:36:03.041Z,98
2019-05-23T04:37:17.138Z,97.8
2019-05-23T04:38:31.489Z,97.6
2019-05-23T04:39:45.535Z,97.5
2019-05-23T04:40:59.744Z,96.8
2019-05-23T04:42:13.949Z,96.7
2019-05-23T04:43:28.207Z,96
2019-05-23T04:44:42.329Z,95.5
2019-05-23T04:45:56.602Z,95
2019-05-23T04:47:10.701Z,95.2
2019-05-23T04:48:24.929Z,94.8
2019-05-23T04:49:43.847Z,94.8
2019-05-23T04:50:53.316Z,94.1
2019-05-23T04:52:07.489Z,93.3
2019-05-23T04:53:21.676Z,92.2
2019-05-23T04:54:35.872Z,91.1
2019-05-23T04:55:50.059Z,91.1
2019-05-23T04:57:05.520Z,90.9
2019-05-23T04:58:18.462Z,91.6
2019-05-23T04:59:32.637Z,92
2019-05-23T05:00:46.832Z,91.2
2019-05-23T05:02:01.033Z,89.6
2019-05-23T05:03:15.185Z,88.7
2019-05-23T05:04:30.677Z,89.5
2019-05-23T05:05:43.558Z,89
2019-05-23T05:06:57.743Z,88
2019-05-23T05:08:11.985Z,87.6
2019-05-23T05:09:26.089Z,86.9
2019-05-23T05:10:40.393Z,85.7
2019-05-23T05:11:54.471Z,84.8
2019-05-23T05:13:08.625Z,83.7
2019-05-23T05:14:22.795Z,83
2019-05-23T05:15:36.970Z,83.8
2019-05-23T05:16:51.967Z,83.6
2019-05-23T05:18:05.473Z,83.4
2019-05-23T05:19:19.884Z,83.9
2019-05-23T05:20:33.617Z,81.9
2019-05-23T05:21:47.813Z,81.1
2019-05-23T05:23:01.963Z,80.5
2019-05-23T05:24:16.138Z,79.3
2019-05-23T05:25:31.421Z,78
2019-05-23T05:26:44.522Z,78
2019-05-23T05:27:58.664Z,77.4
2019-05-23T05:29:12.885Z,76.3
2019-05-23T05:30:27.042Z,77.3
2019-05-23T05:31:46.613Z,77.5
2019-05-23T05:33:00.287Z,76.3
2019-05-23T05:34:09.451Z,73.6
2019-05-23T05:35:23.599Z,73.5
2019-05-23T05:36:37.740Z,72.1
2019-05-23T05:37:52.020Z,72
2019-05-23T05:39:06.223Z,71.4
2019-05-23T05:40:21.038Z,71.3
2019-05-23T05:41:34.396Z,69.5
2019-05-23T05:42:48.537Z,70
2019-05-23T05:44:02.689Z,65.4
2019-05-23T05:45:16.972Z,68.8
2019-05-23T05:46:31.072Z,71
2019-05-23T05:47:45.156Z,64.3
2019-05-23T05:48:59.369Z,66.4
2019-05-23T05:50:13.648Z,64.9
2019-05-23T05:51:27.668Z,64.8
2019-05-23T05:52:41.798Z,67.1
2019-05-23T05:53:55.951Z,67.5
2019-05-23T05:55:10.013Z,67.9
2019-05-23T05:56:24.249Z,67.1
2019-05-23T05:57:38.313Z,63.9
2019-05-23T05:58:52.464Z,63.4
2019-05-23T06:00:06.622Z,63.7
2019-05-23T06:01:20.757Z,64
2019-05-23T06:02:34.975Z,64.2
2019-05-23T06:03:48.994Z,63.5
2019-05-23T06:05:03.245Z,63.6
2019-05-23T06:06:17.275Z,60.4
2019-05-23T06:07:31.375Z,62.6
2019-05-23T06:08:50.489Z,62.8
2019-05-23T06:09:59.632Z,62.7
2019-05-23T06:11:13.741Z,62.9
2019-05-23T06:12:27.868Z,64.3
2019-05-23T06:13:42.085Z,64.9
2019-05-23T06:14:56.120Z,65
2019-05-23T06:16:10.238Z,64.2
2019-05-23T06:17:24.442Z,62
2019-05-23T06:18:38.459Z,64.5
2019-05-23T06:19:52.583Z,64.4
2019-05-23T06:21:06.759Z,60.8
2019-05-23T06:22:20.886Z,60.9
2019-05-23T06:23:36.035Z,59.6
2019-05-23T06:24:49.147Z,57.9
2019-05-23T06:26:03.144Z,61.3
2019-05-23T06:27:17.240Z,60
2019-05-23T06:28:31.364Z,59
2019-05-23T06:29:45.471Z,58.3
2019-05-23T06:30:59.558Z,59.4
2019-05-23T06:32:13.717Z,60
2019-05-23T06:33:27.795Z,61.5
2019-05-23T06:34:41.884Z,63.1
2019-05-23T06:35:55.994Z,61.2
2019-05-23T06:37:10.116Z,58
2019-05-23T06:38:24.273Z,57.3
2019-05-23T06:39:38.316Z,57.5
2019-05-23T06:40:52.426Z,58
2019-05-23T06:42:06.688Z,59
2019-05-23T06:43:20.938Z,57.6
2019-05-23T06:44:34.794Z,58
2019-05-23T06:45:48.857Z,57.3
2019-05-23T06:47:03.086Z,57.9
2019-05-23T06:48:17.163Z,59.4
2019-05-23T06:49:31.193Z,59.8
2019-05-23T06:50:45.324Z,57.1
2019-05-23T06:51:59.406Z,58.3
2019-05-23T06:53:13.526Z,59.8
2019-05-23T06:54:27.628Z,55.9
2019-05-23T06:55:41.753Z,56.2
2019-05-23T06:56:55.885Z,55.8
2019-05-23T06:58:09.890Z,58.4
2019-05-23T06:59:23.981Z,57.4
2019-05-23T07:00:38.156Z,55.1
2019-05-23T07:01:52.280Z,56.1
2019-05-23T07:03:06.401Z,52.3
2019-05-23T07:04:20.339Z,51.3
2019-05-23T07:05:34.428Z,50.7
2019-05-23T07:06:48.574Z,52.5
2019-05-23T07:08:02.599Z,55.5
2019-05-23T07:09:16.798Z,51.4
2019-05-23T07:10:30.779Z,51.2
2019-05-23T07:11:44.854Z,51
2019-05-23T07:12:58.952Z,53.8
2019-05-23T07:14:13.085Z,52.1
2019-05-23T07:15:27.102Z,50.9
2019-05-23T07:16:41.254Z,52.9
2019-05-23T07:17:55.241Z,49.8
2019-05-23T07:19:09.326Z,51
2019-05-23T07:20:23.431Z,52.6
2019-05-23T07:21:37.473Z,52.7
2019-05-23T07:22:51.605Z,51.8
2019-05-23T07:24:05.616Z,52.3
2019-05-23T07:25:19.832Z,50.7
2019-05-23T07:26:33.825Z,53
2019-05-23T07:27:47.814Z,49.5
2019-05-23T07:29:01.966Z,47.8
2019-05-23T07:30:20.480Z,52.2
2019-05-23T07:31:30.097Z,53
2019-05-23T07:32:44.133Z,52.2
2019-05-23T07:33:58.203Z,51
2019-05-23T07:35:12.343Z,53.3
2019-05-23T07:36:26.345Z,46
2019-05-23T07:37:40.362Z,47.7
2019-05-23T07:38:54.447Z,49.7
2019-05-23T07:40:08.514Z,47.6
2019-05-23T07:41:22.567Z,48.9
2019-05-23T07:42:36.637Z,47.7
2019-05-23T07:43:50.709Z,47.6
2019-05-23T07:45:04.831Z,47.7
2019-05-23T07:46:18.855Z,47.7
2019-05-23T07:47:32.886Z,48.8
2019-05-23T07:48:46.945Z,47.7
2019-05-23T07:50:01.010Z,47.6
2019-05-23T07:51:15.077Z,50.6
2019-05-23T07:52:29.128Z,47.7
2019-05-23T07:53:43.230Z,47.1
2019-05-23T07:54:58.653Z,48
2019-05-23T07:56:11.377Z,47.7
2019-05-23T07:57:25.351Z,49.5
2019-05-23T07:58:39.566Z,47.6
2019-05-23T07:59:53.454Z,47.4
2019-05-23T08:01:08.194Z,47.2
2019-05-23T08:02:21.700Z,48.6
2019-05-23T08:03:35.658Z,47.6
2019-05-23T08:04:49.685Z,46
2019-05-23T08:06:03.851Z,45.6
2019-05-23T08:07:20.276Z,43.7
2019-05-23T08:08:34.834Z,44.3
2019-05-23T08:09:45.931Z,45.8
2019-05-23T08:11:00.022Z,46.5
2019-05-23T08:12:13.998Z,46.8
2019-05-23T08:13:28.106Z,45.8
2019-05-23T08:14:42.171Z,44.5
2019-05-23T08:15:56.304Z,44.4
2019-05-23T08:17:10.169Z,47.4
2019-05-23T08:18:24.209Z,45.5
2019-05-23T08:19:38.254Z,43.8
2019-05-23T08:20:52.401Z,46
2019-05-23T08:22:06.496Z,46.2
2019-05-23T08:23:20.391Z,45
2019-05-23T08:24:34.417Z,43.8
2019-05-23T08:25:48.496Z,45.8
2019-05-23T08:27:02.484Z,47.2
2019-05-23T08:28:16.571Z,42.7
2019-05-23T08:29:30.544Z,41.4
2019-05-23T08:30:44.648Z,43.3
2019-05-23T08:31:58.891Z,43.8
2019-05-23T08:33:12.706Z,42.7
2019-05-23T08:34:26.726Z,45.5
2019-05-23T08:35:40.699Z,44.4
2019-05-23T08:36:54.825Z,44.1
2019-05-23T08:38:08.783Z,46.3
2019-05-23T08:40:36.862Z,47.1
2019-05-23T08:41:50.960Z,44.6
2019-05-23T08:43:04.935Z,43
2019-05-23T08:44:18.968Z,41.9
2019-05-23T08:45:33.087Z,42.3
2019-05-23T08:46:47.159Z,43.3
2019-05-23T08:48:01.048Z,43.5
2019-05-23T08:49:15.167Z,42.8
2019-05-23T08:50:29.136Z,42.9
2019-05-23T08:51:43.224Z,44.5
2019-05-23T08:52:57.250Z,42.7
2019-05-23T08:55:25.340Z,43.6
2019-05-23T08:56:39.243Z,44.3
2019-05-23T08:57:53.296Z,43.2
2019-05-23T08:59:07.409Z,44.4
2019-05-23T09:00:21.374Z,44.8
2019-05-23T09:01:35.759Z,43.5
2019-05-23T09:02:49.388Z,44.5
2019-05-23T09:04:03.429Z,41.2
2019-05-23T09:05:17.449Z,42.1
2019-05-23T09:07:45.502Z,38.2
2019-05-23T09:08:59.518Z,38.6
2019-05-23T09:10:13.608Z,39.3
2019-05-23T09:11:27.665Z,36.8
2019-05-23T09:12:41.662Z,40
2019-05-23T09:13:55.580Z,35.9
2019-05-23T09:15:09.739Z,37.7
2019-05-23T09:16:23.650Z,39.3
2019-05-23T09:17:37.676Z,38.4
2019-05-23T09:18:51.768Z,39.2
2019-05-23T09:20:05.786Z,39.4
2019-05-23T09:21:19.719Z,39.2
2019-05-23T09:22:33.811Z,39.3
2019-05-23T09:23:47.980Z,40.3
2019-05-23T09:25:01.957Z,36.6
2019-05-23T09:26:15.947Z,36.3
2019-05-23T09:27:29.829Z,34.4
2019-05-23T09:28:43.866Z,36.3
2019-05-23T09:29:58.004Z,34.8
2019-05-23T09:31:11.985Z,36.5
2019-05-23T09:32:25.934Z,37.6
2019-05-23T09:33:39.971Z,34.7
2019-05-23T09:34:53.970Z,34.8
2019-05-23T09:36:08.053Z,36.5
2019-05-23T09:37:22.207Z,39.1
2019-05-23T09:38:36.298Z,35.2
2019-05-23T09:39:50.074Z,37.6
2019-05-23T09:41:04.084Z,36
2019-05-23T09:42:18.091Z,34.7
2019-05-23T09:43:35.727Z,36.6
2019-05-23T09:46:00.149Z,36
2019-05-23T09:47:14.176Z,38.4
2019-05-23T09:48:28.186Z,38.3
2019-05-23T09:49:42.276Z,37.8
2019-05-23T09:50:56.219Z,39.1
2019-05-23T09:52:10.437Z,39.1
2019-05-23T09:53:24.242Z,35.4
2019-05-23T09:55:52.289Z,35.4
2019-05-23T09:57:06.333Z,36.7
2019-05-23T09:58:20.312Z,38.2
2019-05-23T09:59:34.312Z,35.8
2019-05-23T10:00:48.325Z,36.7
2019-05-23T10:02:06.955Z,38.2
2019-05-23T10:03:16.353Z,36.3
2019-05-23T10:04:30.366Z,37
2019-05-23T10:05:44.403Z,36.3
2019-05-23T10:06:58.390Z,37.1
2019-05-23T10:08:12.511Z,37.1
2019-05-23T10:09:26.511Z,35.2
2019-05-23T10:10:40.447Z,35.3
2019-05-23T10:13:08.488Z,38.4
2019-05-23T10:14:22.512Z,38.7
2019-05-23T10:15:36.506Z,37.8
2019-05-23T10:16:50.523Z,36.8
2019-05-23T10:18:04.521Z,37.2
2019-05-23T10:19:18.543Z,34.8
2019-05-23T10:20:32.553Z,35.7
2019-05-23T10:21:46.575Z,35.1
2019-05-23T10:23:00.598Z,36.5
2019-05-23T10:24:14.598Z,33.2
2019-05-23T10:25:28.805Z,33.6
2019-05-23T10:26:42.699Z,34.9
2019-05-23T10:27:56.644Z,35.1
2019-05-23T10:29:10.674Z,38
2019-05-23T10:30:24.676Z,37
2019-05-23T10:31:38.694Z,35.7
2019-05-23T10:32:52.707Z,36.6
2019-05-23T10:34:06.761Z,39.7
2019-05-23T10:36:34.811Z,40.2
2019-05-23T10:37:48.964Z,36.5
2019-05-23T10:39:04.278Z,40.5
2019-05-23T10:40:18.909Z,36.2
2019-05-23T10:41:33.714Z,35.8
2019-05-23T10:42:48.233Z,38.5
2019-05-23T10:43:59.131Z,38.1
2019-05-23T10:45:13.020Z,36.4
2019-05-23T10:46:27.036Z,33.2
2019-05-23T10:47:41.095Z,33.8
2019-05-23T10:48:55.077Z,33.8
2019-05-23T10:50:09.384Z,35.2
2019-05-23T10:51:23.213Z,35.8
2019-05-23T10:52:37.293Z,40
2019-05-23T10:53:51.231Z,38
2019-05-23T10:55:05.357Z,34.9
2019-05-23T10:56:19.384Z,36.6
2019-05-23T10:57:36.177Z,35.6
2019-05-23T11:01:19.359Z,33.1
2019-05-23T11:02:29.333Z,36.3
2019-05-23T11:03:43.367Z,33.2
2019-05-23T11:04:57.501Z,36.4
2019-05-23T11:06:11.545Z,34
2019-05-23T11:07:25.509Z,32.9
2019-05-23T11:08:39.485Z,34
2019-05-23T11:09:53.576Z,39.2
2019-05-23T11:11:07.553Z,34.3
2019-05-23T11:12:21.600Z,31.4
2019-05-23T11:13:35.486Z,33.8
2019-05-23T11:14:49.586Z,31.6
2019-05-23T11:16:05.988Z,33.8
2019-05-23T11:17:17.530Z,33.4
2019-05-23T11:18:31.554Z,32
2019-05-23T11:19:45.553Z,32.1
2019-05-23T11:20:59.577Z,35.2
2019-05-23T11:22:13.600Z,35.2
2019-05-23T11:23:27.741Z,34.3
2019-05-23T11:24:41.730Z,35
2019-05-23T11:25:55.663Z,33.9
2019-05-23T11:27:09.657Z,33.5
2019-05-23T11:29:37.702Z,34.8
2019-05-23T11:30:51.695Z,34.3
2019-05-23T11:32:05.712Z,37.7
2019-05-23T11:33:19.808Z,32.5
2019-05-23T11:34:33.756Z,32.8
2019-05-23T11:35:47.838Z,30.7
2019-05-23T11:37:01.778Z,32.8
2019-05-23T11:38:15.783Z,31.6
2019-05-23T11:39:29.791Z,31.9
2019-05-23T11:40:43.899Z,32
2019-05-23T11:41:57.825Z,29.9
2019-05-23T11:43:11.847Z,31.8
2019-05-23T11:44:25.899Z,30.8
2019-05-23T11:45:39.915Z,30.6
2019-05-23T11:46:53.996Z,31.1
2019-05-23T11:48:07.993Z,32.1
2019-05-23T11:49:21.937Z,31.7
2019-05-23T11:50:36.027Z,30.1
2019-05-23T11:51:49.968Z,31.4
2019-05-23T11:54:17.999Z,30.6
2019-05-23T11:55:32.073Z,33.3
2019-05-23T11:56:46.005Z,29.7
2019-05-23T11:58:00.030Z,30.7
2019-05-23T11:59:14.076Z,28.8
2019-05-23T12:00:30.838Z,29.5
2019-05-23T12:01:42.404Z,32.1
2019-05-23T12:02:56.166Z,30.9
2019-05-23T12:04:10.167Z,32.8
2019-05-23T12:05:24.158Z,30.9
2019-05-23T12:06:38.171Z,33.2
2019-05-23T12:07:52.183Z,33.3
2019-05-23T12:09:06.314Z,34.9
2019-05-23T12:10:20.228Z,36.3
2019-05-23T12:11:34.272Z,32.1
2019-05-23T12:12:48.282Z,35.4
2019-05-23T12:14:02.328Z,33
2019-05-23T12:15:16.560Z,36.5
2019-05-23T12:16:30.439Z,32.5
2019-05-23T12:17:44.470Z,33.8
2019-05-23T12:18:58.516Z,33.1
2019-05-23T12:20:12.648Z,34.5
2019-05-23T12:21:26.597Z,34.4
2019-05-23T12:22:40.678Z,30.3
2019-05-23T12:23:54.637Z,32.4
2019-05-23T12:25:08.697Z,31.3
2019-05-23T12:26:22.756Z,32.8
2019-05-23T12:27:36.724Z,34
2019-05-23T12:28:50.755Z,32.4
2019-05-23T12:30:04.910Z,31.6
2019-05-23T12:31:18.809Z,31.8
2019-05-23T12:32:32.859Z,31.5
2019-05-23T12:33:46.866Z,32.2
2019-05-23T12:35:00.888Z,30.7
2019-05-23T12:36:14.903Z,30
2019-05-23T12:37:28.923Z,32.5
2019-05-23T12:38:42.960Z,33.2
2019-05-23T12:39:57.058Z,32
2019-05-23T12:41:11.019Z,31.7
2019-05-23T12:43:39.072Z,33
2019-05-23T12:44:53.191Z,33.6
2019-05-23T12:46:07.176Z,36.2
2019-05-23T12:47:21.323Z,30.4
2019-05-23T12:48:35.200Z,32.4
2019-05-23T12:49:49.227Z,30.2
2019-05-23T12:51:03.268Z,31.8
2019-05-23T12:52:17.304Z,33.2
2019-05-23T12:53:31.339Z,29.8
2019-05-23T12:54:45.387Z,33.1
2019-05-23T12:55:59.514Z,32.8
2019-05-23T12:57:13.455Z,34
2019-05-23T12:58:27.481Z,32.3
2019-05-23T12:59:41.605Z,33.5
2019-05-23T13:00:55.582Z,34.5
2019-05-23T13:02:09.701Z,32.4
2019-05-23T13:03:23.655Z,33.5
2019-05-23T13:04:37.822Z,31.9
2019-05-23T13:05:51.761Z,34.1
2019-05-23T13:07:05.881Z,33.6
2019-05-23T13:08:19.928Z,31.2
2019-05-23T13:09:33.879Z,34
2019-05-23T13:10:47.932Z,35.3
2019-05-23T13:12:01.994Z,35.5
2019-05-23T13:13:16.120Z,35.2
2019-05-23T13:14:30.178Z,34.2
2019-05-23T13:15:44.152Z,30.5
2019-05-23T13:16:58.284Z,32.3
2019-05-23T13:18:12.276Z,33.4
2019-05-23T13:19:26.276Z,31.4
2019-05-23T13:20:40.340Z,33.7
2019-05-23T13:21:54.484Z,30.9
2019-05-23T13:23:08.475Z,32.3
2019-05-23T13:24:22.582Z,31.7
2019-05-23T13:26:50.671Z,35.6
2019-05-23T13:28:04.827Z,36
2019-05-23T13:29:18.681Z,32.6
2019-05-23T13:30:32.718Z,31.6
2019-05-23T13:31:46.771Z,34.6
2019-05-23T13:33:00.895Z,31.2
2019-05-23T13:35:28.935Z,30.8
2019-05-23T13:36:42.984Z,30.9
2019-05-23T13:39:11.074Z,29.5
2019-05-23T13:40:25.160Z,29.3
2019-05-23T13:41:39.270Z,28.8
2019-05-23T13:42:53.203Z,30.4
2019-05-23T13:44:07.329Z,32.4
2019-05-23T13:45:21.362Z,35.1
2019-05-23T13:46:35.314Z,30.7
2019-05-23T13:47:49.373Z,30.3
2019-05-23T13:49:03.454Z,30.3
2019-05-23T13:50:17.445Z,31.9
2019-05-23T13:51:31.495Z,30.9
2019-05-23T13:52:45.648Z,29
2019-05-23T13:53:59.561Z,29.7
2019-05-23T13:55:13.687Z,30.3
2019-05-23T13:57:41.663Z,34.4
2019-05-23T13:58:55.779Z,34.7
2019-05-23T14:00:09.730Z,34.8
2019-05-23T14:01:23.882Z,37.3
2019-05-23T14:03:51.874Z,34.1
2019-05-23T14:05:06.021Z,35.3
2019-05-23T14:06:19.975Z,36.8
2019-05-23T14:07:34.040Z,35.1
2019-05-23T14:08:51.520Z,35.7
2019-05-23T14:10:02.277Z,41.1
2019-05-23T14:11:16.329Z,35.7
2019-05-23T14:12:30.295Z,35.3
2019-05-23T14:13:44.428Z,34.1
2019-05-23T14:14:58.422Z,35.4
2019-05-23T14:16:12.513Z,34.6
2019-05-23T14:17:26.652Z,34.1
2019-05-23T14:18:40.654Z,31.8
2019-05-23T14:19:54.786Z,35.1
2019-05-23T14:21:08.885Z,32.5
2019-05-23T14:22:22.899Z,31.5
2019-05-23T14:23:36.871Z,32.7
2019-05-23T14:24:50.970Z,32.3
2019-05-23T14:27:21.160Z,37
2019-05-23T14:28:35.523Z,31.7
2019-05-23T14:29:49.314Z,32.7
2019-05-23T14:31:03.090Z,31.9
2019-05-23T14:32:20.989Z,29.9
2019-05-23T14:33:34.378Z,29
2019-05-23T14:34:43.321Z,30.7
2019-05-23T14:35:57.369Z,28.9
2019-05-23T14:37:11.396Z,30.2
2019-05-23T14:38:25.523Z,32.1
2019-05-23T14:39:39.495Z,30.7
2019-05-23T14:40:54.800Z,30.4
2019-05-23T14:42:09.589Z,30.6
2019-05-23T14:43:23.471Z,30.8
2019-05-23T14:44:35.635Z,29.8
2019-05-23T14:47:03.716Z,35.4
2019-05-23T14:48:17.842Z,31.3
2019-05-23T14:49:31.805Z,35.6
2019-05-23T14:50:45.844Z,33.6
2019-05-23T14:53:13.973Z,35
2019-05-23T14:54:28.024Z,28.9
2019-05-23T14:55:42.021Z,30.7
2019-05-23T14:56:56.170Z,30.6
2019-05-23T14:58:10.243Z,29
2019-05-23T14:59:24.163Z,30.6
2019-05-23T15:00:38.287Z,31.9
2019-05-23T15:01:52.281Z,28.9
2019-05-23T15:03:06.406Z,31.7
2019-05-23T15:04:20.327Z,32
2019-05-23T15:05:34.394Z,29.6
2019-05-23T15:06:48.513Z,31.5
2019-05-23T15:08:02.553Z,32.8
2019-05-23T15:09:16.603Z,32.2
2019-05-23T15:10:30.743Z,37
2019-05-23T15:11:44.629Z,36.4
2019-05-23T15:12:59.094Z,30.6
2019-05-23T15:14:12.713Z,32.4
2019-05-23T15:15:26.933Z,33.7
2019-05-23T15:16:40.806Z,33.5
2019-05-23T15:17:54.934Z,30.1
2019-05-23T15:19:08.930Z,33.1
2019-05-23T15:20:22.974Z,34.3
2019-05-23T15:21:37.121Z,41.5
2019-05-23T15:22:51.298Z,35.5
2019-05-23T15:24:05.182Z,30.7
2019-05-23T15:25:19.222Z,31.3
2019-05-23T15:26:33.270Z,30.6
2019-05-23T15:27:47.327Z,32.3
2019-05-23T15:29:01.377Z,35.1
2019-05-23T15:30:15.442Z,35.1
2019-05-23T15:31:29.478Z,34.1
2019-05-23T15:32:43.530Z,36.2
2019-05-23T15:33:57.595Z,33.4
2019-05-23T15:35:11.646Z,32.1
2019-05-23T15:36:25.704Z,33.5
2019-05-23T15:37:39.832Z,31
2019-05-23T15:40:07.862Z,30.1
2019-05-23T15:42:41.906Z,31.3
2019-05-23T15:43:50.079Z,31.6
2019-05-23T15:45:04.184Z,30.5
2019-05-23T15:46:18.171Z,30.5
2019-05-23T15:48:46.312Z,32.7
2019-05-23T15:50:00.350Z,32.2
2019-05-23T15:51:14.613Z,32.8
2019-05-23T15:52:28.472Z,32.5
2019-05-23T15:53:42.569Z,32.5
2019-05-23T15:54:56.672Z,32.2
2019-05-23T15:56:11.952Z,31.7
2019-05-23T15:57:24.712Z,33.7
2019-05-23T15:58:38.797Z,32.2
2019-05-23T15:59:52.828Z,36.5
2019-05-23T16:01:06.970Z,36.4
2019-05-23T16:02:21.041Z,33.4
2019-05-23T16:03:35.009Z,31.3
2019-05-23T16:04:49.091Z,32.5
2019-05-23T16:06:03.210Z,31.7
2019-05-23T16:07:17.276Z,31
2019-05-23T16:08:31.270Z,32.5
2019-05-23T16:09:45.305Z,35.6
2019-05-23T16:10:59.418Z,36.7
2019-05-23T16:12:13.416Z,34.8
2019-05-23T16:13:27.457Z,34.4
2019-05-23T16:14:41.524Z,37.8
2019-05-23T16:15:55.586Z,38
2019-05-23T16:17:10.305Z,37.1
2019-05-23T16:18:23.759Z,38.4
2019-05-23T16:19:37.873Z,40.6
2019-05-23T16:20:51.850Z,39.8
2019-05-23T16:22:06.132Z,48.2
2019-05-23T16:23:20.022Z,35.3
2019-05-23T16:24:34.095Z,38.3
2019-05-23T16:25:48.266Z,42.3
2019-05-23T16:27:02.332Z,39.5
2019-05-23T16:28:16.322Z,37.6
2019-05-23T16:29:30.399Z,39.8
2019-05-23T16:30:44.502Z,41
2019-05-23T16:31:58.557Z,38.1
2019-05-23T16:33:12.662Z,39.7
2019-05-23T16:34:26.746Z,38.8
2019-05-23T16:35:40.802Z,38
2019-05-23T16:36:54.871Z,38.1
2019-05-23T16:38:08.966Z,38.2
2019-05-23T16:39:23.034Z,37.6
2019-05-23T16:40:37.227Z,43
2019-05-23T16:41:51.209Z,44.6
2019-05-23T16:43:05.272Z,40.4
2019-05-23T16:44:19.492Z,38.1
2019-05-23T16:45:33.441Z,38.4
2019-05-23T16:46:47.510Z,42
2019-05-23T16:48:01.686Z,43.1
2019-05-23T16:49:15.701Z,40.3
2019-05-23T16:50:29.755Z,37.4
2019-05-23T16:51:43.828Z,43
2019-05-23T16:52:57.910Z,43
2019-05-23T16:54:12.150Z,46.9
2019-05-23T16:55:26.181Z,43.8
2019-05-23T16:56:40.219Z,43.1
2019-05-23T16:57:54.275Z,42.8
2019-05-23T16:59:08.481Z,48.3
2019-05-23T17:00:22.574Z,46.6
2019-05-23T17:01:36.596Z,47.6
2019-05-23T17:02:50.692Z,51.4
2019-05-23T17:04:04.887Z,44.1